createdAt,value
2018-09-17T00:00:35.456Z,3.13
2018-09-17T00:03:04.006Z,3.10
2018-09-17T00:05:32.408Z,3.53
2018-09-17T00:08:00.828Z,3.20
2018-09-17T00:10:29.242Z,3.43
2018-09-17T00:12:57.658Z,3.40
2018-09-17T00:15:26.024Z,3.13
2018-09-17T00:17:54.429Z,3.47
2018-09-17T00:20:22.876Z,3.70
2018-09-17T00:22:51.257Z,3.10
2018-09-17T00:25:19.691Z,3.73
2018-09-17T00:27:48.090Z,3.10
2018-09-17T00:30:16.508Z,3.50
2018-09-17T00:32:44.935Z,3.77
2018-09-17T00:35:13.385Z,2.70
2018-09-17T00:37:41.781Z,3.30
2018-09-17T00:40:10.210Z,3.20
2018-09-17T00:42:38.713Z,3.07
2018-09-17T00:45:07.149Z,3.20
2018-09-17T00:47:35.593Z,3.57
2018-09-17T00:50:04.077Z,2.97
2018-09-17T00:52:32.519Z,3.43
2018-09-17T00:55:00.919Z,3.00
2018-09-17T00:57:29.437Z,3.43
2018-09-17T00:59:57.907Z,3.33
2018-09-17T01:02:26.331Z,2.93
2018-09-17T01:04:55.329Z,3.13
2018-09-17T01:07:23.781Z,3.00
2018-09-17T01:09:52.196Z,3.10
2018-09-17T01:12:20.629Z,3.40
2018-09-17T01:14:49.039Z,4.47
2018-09-17T01:17:17.505Z,3.07
2018-09-17T01:19:45.939Z,3.80
2018-09-17T01:22:14.360Z,3.60
2018-09-17T01:24:42.730Z,3.20
2018-09-17T01:27:11.140Z,3.47
2018-09-17T01:29:39.620Z,3.67
2018-09-17T01:32:08.051Z,3.10
2018-09-17T01:34:36.448Z,3.10
2018-09-17T01:37:04.928Z,3.03
2018-09-17T01:39:33.279Z,3.80
2018-09-17T01:42:01.738Z,3.40
2018-09-17T01:44:30.177Z,3.57
2018-09-17T01:46:58.589Z,3.57
2018-09-17T01:49:27.055Z,2.83
2018-09-17T01:51:55.556Z,3.00
2018-09-17T01:54:23.966Z,3.10
2018-09-17T01:56:52.344Z,3.33
2018-09-17T01:59:20.783Z,3.60
2018-09-17T02:01:49.254Z,4.27
2018-09-17T02:04:17.656Z,4.33
2018-09-17T02:06:46.045Z,3.47
2018-09-17T02:09:15.041Z,3.90
2018-09-17T02:11:43.444Z,3.10
2018-09-17T02:14:12.397Z,3.53
2018-09-17T02:16:40.806Z,3.27
2018-09-17T02:19:09.260Z,3.40
2018-09-17T02:21:37.701Z,3.50
2018-09-17T02:24:06.248Z,3.90
2018-09-17T02:26:34.626Z,3.43
2018-09-17T02:29:03.035Z,3.23
2018-09-17T02:31:31.439Z,3.37
2018-09-17T02:33:59.803Z,3.53
2018-09-17T02:36:28.247Z,3.37
2018-09-17T02:38:56.642Z,3.40
2018-09-17T02:41:25.124Z,3.40
2018-09-17T02:43:53.597Z,3.23
2018-09-17T02:46:22.028Z,3.37
2018-09-17T02:48:50.435Z,3.53
2018-09-17T02:51:18.932Z,3.23
2018-09-17T02:53:47.340Z,3.30
2018-09-17T02:56:15.765Z,4.70
2018-09-17T02:58:44.168Z,3.73
2018-09-17T03:01:12.581Z,3.47
2018-09-17T03:03:41.044Z,3.33
2018-09-17T03:06:09.444Z,3.40
2018-09-17T03:08:37.849Z,3.00
2018-09-17T03:11:06.318Z,3.73
2018-09-17T03:13:34.812Z,3.50
2018-09-17T03:16:03.263Z,3.83
2018-09-17T03:18:42.999Z,3.33
2018-09-17T03:21:11.449Z,4.07
2018-09-17T03:23:39.925Z,3.70
2018-09-17T03:26:08.621Z,4.13
2018-09-17T03:28:36.996Z,3.73
2018-09-17T03:31:05.397Z,3.57
2018-09-17T03:33:33.820Z,3.37
2018-09-17T03:36:02.317Z,3.47
2018-09-17T03:38:39.224Z,4.30
2018-09-17T03:41:08.381Z,3.43
2018-09-17T03:43:37.879Z,3.50
2018-09-17T03:46:06.398Z,3.80
2018-09-17T03:48:35.780Z,3.80
2018-09-17T03:51:04.977Z,3.53
2018-09-17T03:53:33.883Z,3.60
2018-09-17T03:56:03.132Z,3.50
2018-09-17T03:58:31.641Z,3.53
2018-09-17T04:01:01.358Z,3.80
2018-09-17T04:03:29.779Z,4.20
2018-09-17T04:05:58.851Z,4.23
2018-09-17T04:08:27.336Z,4.63
2018-09-17T04:10:55.811Z,4.20
2018-09-17T04:13:24.189Z,4.57
2018-09-17T04:15:52.595Z,4.27
2018-09-17T04:18:21.161Z,4.47
2018-09-17T04:20:49.598Z,4.13
2018-09-17T04:23:50.758Z,4.17
2018-09-17T04:26:19.160Z,4.20
2018-09-17T04:28:47.792Z,4.20
2018-09-17T04:31:16.235Z,4.57
2018-09-17T04:33:44.904Z,4.03
2018-09-17T04:36:13.840Z,4.33
2018-09-17T04:38:42.308Z,4.27
2018-09-17T04:41:10.748Z,4.63
2018-09-17T04:43:39.146Z,4.30
2018-09-17T04:48:49.694Z,4.00
2018-09-17T04:51:18.096Z,3.93
2018-09-17T04:53:46.501Z,4.40
2018-09-17T04:56:14.945Z,4.13
2018-09-17T04:58:43.357Z,3.60
2018-09-17T05:01:11.821Z,3.50
2018-09-17T05:03:40.259Z,3.93
2018-09-17T05:06:08.675Z,4.07
2018-09-17T05:08:37.051Z,4.07
2018-09-17T05:11:06.151Z,4.90
2018-09-17T05:13:34.590Z,4.20
2018-09-17T05:16:03.082Z,4.90
2018-09-17T05:18:31.533Z,3.90
2018-09-17T05:20:59.993Z,4.03
2018-09-17T05:23:28.384Z,4.53
2018-09-17T05:25:56.800Z,4.63
2018-09-17T05:28:25.196Z,4.30
2018-09-17T05:30:53.596Z,4.77
2018-09-17T05:33:22.054Z,4.37
2018-09-17T05:35:50.479Z,5.50
2018-09-17T05:38:18.887Z,5.37
2018-09-17T05:40:47.325Z,4.90
2018-09-17T05:43:15.704Z,5.40
2018-09-17T05:45:44.107Z,5.10
2018-09-17T05:48:13.359Z,4.73
2018-09-17T05:50:41.763Z,4.00
2018-09-17T05:53:10.167Z,4.50
2018-09-17T05:55:38.529Z,4.53
2018-09-17T05:58:06.932Z,4.50
2018-09-17T06:00:35.384Z,5.10
2018-09-17T06:03:04.426Z,4.97
2018-09-17T06:05:32.940Z,4.90
2018-09-17T06:08:01.364Z,4.57
2018-09-17T06:10:29.813Z,6.50
2018-09-17T06:12:58.257Z,5.20
2018-09-17T06:15:26.741Z,4.37
2018-09-17T06:17:55.161Z,5.00
2018-09-17T06:20:23.566Z,5.00
2018-09-17T06:22:51.970Z,4.67
2018-09-17T06:25:20.380Z,4.97
2018-09-17T06:27:48.801Z,5.30
2018-09-17T06:30:17.200Z,4.40
2018-09-17T06:32:45.620Z,5.57
2018-09-17T06:35:14.035Z,4.73
2018-09-17T06:37:42.480Z,5.33
2018-09-17T06:40:10.859Z,5.90
2018-09-17T06:42:39.311Z,5.80
2018-09-17T06:45:07.769Z,6.03
2018-09-17T06:47:36.197Z,6.07
2018-09-17T06:50:05.076Z,5.43
2018-09-17T06:52:33.479Z,6.33
2018-09-17T06:55:01.880Z,6.63
2018-09-17T06:57:30.285Z,6.50
2018-09-17T06:59:58.749Z,6.00
2018-09-17T07:02:27.191Z,6.73
2018-09-17T07:04:55.604Z,6.30
2018-09-17T07:07:23.987Z,6.17
2018-09-17T07:09:52.490Z,7.00
2018-09-17T07:12:20.872Z,6.50
2018-09-17T07:14:49.301Z,6.33
2018-09-17T07:17:17.694Z,6.73
2018-09-17T07:19:46.885Z,6.50
2018-09-17T07:22:15.293Z,6.67
2018-09-17T07:24:43.684Z,7.43
2018-09-17T07:27:12.091Z,7.20
2018-09-17T07:29:40.525Z,7.30
2018-09-17T07:32:08.976Z,6.47
2018-09-17T07:34:37.392Z,7.20
2018-09-17T07:37:05.962Z,7.33
2018-09-17T07:39:34.463Z,8.30
2018-09-17T07:42:03.018Z,8.10
2018-09-17T07:44:31.495Z,7.03
2018-09-17T07:46:59.920Z,6.57
2018-09-17T07:49:28.339Z,6.23
2018-09-17T07:51:56.772Z,6.67
2018-09-17T07:54:25.215Z,7.63
2018-09-17T07:56:53.974Z,8.30
2018-09-17T07:59:22.391Z,7.17
2018-09-17T08:01:50.889Z,7.60
2018-09-17T08:04:19.336Z,5.90
2018-09-17T08:06:47.756Z,6.23
2018-09-17T08:09:16.172Z,6.30
2018-09-17T08:11:44.841Z,7.70
2018-09-17T08:14:14.608Z,7.30
2018-09-17T08:16:43.081Z,6.00
2018-09-17T08:19:11.544Z,6.40
2018-09-17T08:21:40.032Z,9.37
2018-09-17T08:24:08.435Z,7.90
2018-09-17T08:26:36.879Z,9.83
2018-09-17T08:29:05.391Z,8.23
2018-09-17T08:31:33.828Z,6.30
2018-09-17T08:34:02.196Z,6.27
2018-09-17T08:36:30.630Z,5.80
2018-09-17T08:38:59.201Z,6.90
2018-09-17T08:41:27.654Z,5.60
2018-09-17T08:43:56.078Z,6.40
2018-09-17T08:46:24.473Z,6.67
2018-09-17T08:48:53.798Z,6.10
2018-09-17T08:51:22.236Z,11.23
2018-09-17T08:53:50.691Z,17.47
2018-09-17T08:56:22.236Z,11.00
2018-09-17T08:58:56.084Z,8.17
2018-09-17T09:01:29.611Z,7.13
2018-09-17T09:04:03.456Z,6.30
2018-09-17T09:06:36.944Z,5.77
2018-09-17T09:09:08.649Z,5.70
2018-09-17T09:12:45.669Z,7.57
2018-09-17T09:15:17.152Z,7.10
2018-09-17T09:17:45.579Z,6.23
2018-09-17T09:20:14.156Z,5.10
2018-09-17T09:22:42.608Z,8.40
2018-09-17T09:25:11.017Z,12.07
2018-09-17T09:27:39.460Z,6.93
2018-09-17T09:30:07.962Z,5.37
2018-09-17T09:32:36.387Z,6.13
2018-09-17T09:35:04.775Z,7.80
2018-09-17T09:37:33.157Z,5.27
2018-09-17T09:40:01.569Z,5.20
2018-09-17T09:42:29.984Z,5.33
2018-09-17T09:44:58.401Z,7.03
2018-09-17T09:47:26.891Z,6.30
2018-09-17T09:49:55.304Z,5.60
2018-09-17T09:52:23.729Z,4.80
2018-09-17T09:54:52.136Z,5.00
2018-09-17T09:57:20.586Z,5.00
2018-09-17T09:59:49.024Z,4.20
2018-09-17T10:02:22.644Z,4.50
2018-09-17T10:04:51.063Z,4.17
2018-09-17T10:07:19.828Z,4.70
2018-09-17T10:09:53.597Z,4.33
2018-09-17T10:12:27.427Z,4.30
2018-09-17T10:15:01.163Z,3.87
2018-09-17T10:17:34.980Z,4.43
2018-09-17T10:20:03.410Z,4.10
2018-09-17T10:22:31.776Z,5.17
2018-09-17T10:25:00.188Z,3.80
2018-09-17T10:27:28.873Z,3.60
2018-09-17T10:29:57.318Z,5.70
2018-09-17T10:32:25.676Z,3.60
2018-09-17T10:34:55.084Z,3.57
2018-09-17T10:37:23.479Z,4.07
2018-09-17T10:39:51.862Z,3.47
2018-09-17T10:42:20.829Z,3.00
2018-09-17T10:44:49.212Z,3.60
2018-09-17T10:47:17.610Z,3.90
2018-09-17T10:49:46.009Z,4.20
2018-09-17T10:52:14.401Z,3.67
2018-09-17T10:54:42.796Z,3.47
2018-09-17T10:57:11.194Z,3.30
2018-09-17T10:59:39.644Z,4.60
2018-09-17T11:02:08.037Z,3.80
2018-09-17T11:04:36.446Z,3.20
2018-09-17T11:07:04.873Z,6.07
2018-09-17T11:09:33.293Z,3.57
2018-09-17T11:12:01.673Z,3.53
2018-09-17T11:14:30.066Z,2.90
2018-09-17T11:16:58.475Z,2.70
2018-09-17T11:19:26.984Z,3.63
2018-09-17T11:21:55.397Z,3.20
2018-09-17T11:24:24.043Z,3.63
2018-09-17T11:26:52.445Z,4.17
2018-09-17T11:29:20.896Z,3.50
2018-09-17T11:31:49.312Z,5.40
2018-09-17T11:34:17.739Z,3.93
2018-09-17T11:36:46.167Z,2.87
2018-09-17T11:39:14.633Z,2.63
2018-09-17T11:41:43.066Z,4.00
2018-09-17T11:44:11.470Z,3.07
2018-09-17T11:46:39.896Z,3.40
2018-09-17T11:49:08.515Z,3.50
2018-09-17T11:51:37.020Z,9.33
2018-09-17T11:54:06.247Z,4.00
2018-09-17T11:56:34.597Z,4.83
2018-09-17T11:59:03.067Z,2.60
2018-09-17T12:01:36.621Z,2.87
2018-09-17T12:04:10.174Z,2.47
2018-09-17T12:06:43.851Z,2.73
2018-09-17T12:09:12.332Z,2.30
2018-09-17T12:11:41.208Z,2.03
2018-09-17T12:14:09.866Z,2.30
2018-09-17T12:16:38.331Z,2.13
2018-09-17T12:19:06.792Z,2.80
2018-09-17T12:21:35.499Z,2.83
2018-09-17T12:24:03.994Z,2.60
2018-09-17T12:26:32.366Z,3.10
2018-09-17T12:29:00.909Z,3.43
2018-09-17T12:31:29.307Z,3.03
2018-09-17T12:33:57.776Z,2.60
2018-09-17T12:36:26.096Z,3.03
2018-09-17T12:38:54.498Z,3.13
2018-09-17T12:41:22.952Z,3.03
2018-09-17T12:43:51.400Z,4.97
2018-09-17T12:46:19.787Z,3.77
2018-09-17T12:48:48.211Z,2.90
2018-09-17T12:51:16.629Z,2.80
2018-09-17T12:53:45.022Z,2.47
2018-09-17T12:56:13.448Z,3.10
2018-09-17T12:58:41.857Z,2.37
2018-09-17T13:01:10.400Z,3.27
2018-09-17T13:03:38.871Z,3.07
2018-09-17T13:06:07.298Z,3.30
2018-09-17T13:08:36.013Z,2.57
2018-09-17T13:11:04.455Z,2.83
2018-09-17T13:13:32.892Z,3.00
2018-09-17T13:16:01.360Z,2.33
2018-09-17T13:18:29.782Z,3.60
2018-09-17T13:20:59.442Z,9.00
2018-09-17T13:23:27.907Z,7.60
2018-09-17T13:25:56.320Z,3.50
2018-09-17T13:28:24.719Z,4.13
2018-09-17T13:30:53.141Z,5.20
2018-09-17T13:33:21.584Z,3.70
2018-09-17T13:35:50.127Z,3.17
2018-09-17T13:38:18.546Z,10.20
2018-09-17T13:40:47.001Z,3.23
2018-09-17T13:43:15.474Z,4.10
2018-09-17T13:45:43.990Z,5.53
2018-09-17T13:48:12.477Z,3.97
2018-09-17T13:50:41.025Z,5.17
2018-09-17T13:53:09.483Z,12.00
2018-09-17T13:55:38.034Z,5.00
2018-09-17T13:58:06.578Z,3.30
2018-09-17T14:00:35.252Z,3.97
2018-09-17T14:03:03.744Z,3.60
2018-09-17T14:05:32.184Z,3.17
2018-09-17T14:08:00.604Z,2.90
2018-09-17T14:10:29.071Z,6.20
2018-09-17T14:12:57.517Z,6.37
2018-09-17T14:15:25.977Z,7.10
2018-09-17T14:17:54.387Z,7.83
2018-09-17T14:20:21.760Z,3.83
2018-09-17T14:22:50.164Z,3.90
2018-09-17T14:25:18.555Z,4.80
2018-09-17T14:27:47.154Z,18.00
2018-09-17T14:30:15.617Z,14.10
2018-09-17T14:32:49.443Z,4.80
2018-09-17T14:35:17.963Z,4.00
2018-09-17T14:37:46.339Z,3.60
2018-09-17T14:40:14.777Z,3.90
2018-09-17T14:42:43.206Z,10.90
2018-09-17T14:45:11.596Z,5.83
2018-09-17T14:47:40.605Z,5.10
2018-09-17T14:50:09.620Z,3.70
2018-09-17T14:52:38.047Z,4.10
2018-09-17T14:55:06.557Z,10.47
2018-09-17T14:57:35.016Z,4.40
2018-09-17T15:00:03.564Z,3.60
2018-09-17T15:02:32.097Z,3.73
2018-09-17T15:05:00.515Z,3.93
2018-09-17T15:07:28.939Z,2.90
2018-09-17T15:09:57.395Z,3.00
2018-09-17T15:12:25.861Z,4.17
2018-09-17T15:14:54.337Z,4.90
2018-09-17T15:17:22.752Z,10.90
2018-09-17T15:19:51.201Z,9.30
2018-09-17T15:22:19.708Z,7.07
2018-09-17T15:24:52.947Z,4.80
2018-09-17T15:27:21.364Z,4.43
2018-09-17T15:29:49.824Z,3.90
2018-09-17T15:32:18.346Z,3.70
2018-09-17T15:34:46.665Z,7.17
2018-09-17T15:37:15.113Z,7.87
2018-09-17T15:39:43.594Z,12.43
2018-09-17T15:42:11.924Z,8.47
2018-09-17T15:44:40.378Z,9.17
2018-09-17T15:47:08.925Z,10.60
2018-09-17T15:49:37.411Z,10.93
2018-09-17T15:52:05.871Z,9.97
2018-09-17T15:54:34.281Z,8.60
2018-09-17T15:57:02.734Z,5.53
2018-09-17T15:59:31.123Z,8.33
2018-09-17T16:01:59.589Z,8.97
2018-09-17T16:04:27.993Z,12.50
2018-09-17T16:06:56.422Z,11.87
2018-09-17T16:09:24.839Z,9.70
2018-09-17T16:11:54.245Z,7.40
2018-09-17T16:14:23.092Z,6.73
2018-09-17T16:16:51.625Z,10.03
2018-09-17T16:19:20.046Z,8.43
2018-09-17T16:21:49.580Z,8.03
2018-09-17T16:24:18.801Z,7.30
2018-09-17T16:26:47.213Z,10.00
2018-09-17T16:29:15.684Z,10.40
2018-09-17T16:31:44.411Z,9.50
2018-09-17T16:34:12.828Z,6.00
2018-09-17T16:36:41.210Z,5.50
2018-09-17T16:41:48.663Z,7.10
2018-09-17T16:44:17.624Z,7.43
2018-09-17T16:46:46.090Z,10.30
2018-09-17T16:49:14.904Z,11.37
2018-09-17T16:51:43.428Z,6.37
2018-09-17T16:54:11.911Z,4.93
2018-09-17T16:56:40.285Z,5.30
2018-09-17T16:59:08.928Z,5.03
2018-09-17T17:01:37.419Z,4.80
2018-09-17T17:04:05.886Z,4.30
2018-09-17T17:06:34.317Z,5.03
2018-09-17T17:09:03.330Z,5.87
2018-09-17T17:11:31.769Z,8.23
2018-09-17T17:14:01.656Z,7.70
2018-09-17T17:16:30.113Z,10.30
2018-09-17T17:18:58.580Z,7.97
2018-09-17T17:21:27.464Z,6.77
2018-09-17T17:23:55.942Z,5.70
2018-09-17T17:26:24.497Z,7.23
2018-09-17T17:28:52.980Z,6.60
2018-09-17T17:31:22.138Z,6.70
2018-09-17T17:33:51.676Z,6.30
2018-09-17T17:36:20.096Z,4.40
2018-09-17T17:38:49.580Z,3.90
2018-09-17T17:41:18.020Z,4.10
2018-09-17T17:43:47.285Z,4.13
2018-09-17T17:46:17.331Z,3.50
2018-09-17T17:48:45.701Z,4.43
2018-09-17T17:51:14.599Z,4.37
2018-09-17T17:53:42.975Z,6.17
2018-09-17T17:56:11.393Z,6.57
2018-09-17T17:58:40.520Z,6.07
2018-09-17T18:01:10.008Z,4.83
2018-09-17T18:03:38.343Z,4.50
2018-09-17T18:06:06.981Z,4.17
2018-09-17T18:08:35.446Z,3.93
2018-09-17T18:11:03.909Z,3.47
2018-09-17T18:13:32.464Z,4.33
2018-09-17T18:16:03.259Z,5.50
2018-09-17T18:18:32.668Z,5.83
2018-09-17T18:21:01.712Z,3.90
2018-09-17T18:23:30.107Z,3.80
2018-09-17T18:25:58.585Z,4.70
2018-09-17T18:28:27.044Z,4.80
2018-09-17T18:30:55.487Z,4.20
2018-09-17T18:33:23.969Z,4.00
2018-09-17T18:35:52.446Z,4.33
2018-09-17T18:38:20.955Z,6.13
2018-09-17T18:40:49.429Z,5.03
2018-09-17T18:43:17.882Z,4.43
2018-09-17T18:45:46.349Z,4.60
2018-09-17T18:48:14.818Z,4.30
2018-09-17T18:50:44.080Z,4.57
2018-09-17T18:53:12.495Z,4.70
2018-09-17T18:55:40.920Z,4.00
2018-09-17T18:58:09.386Z,4.63
2018-09-17T19:00:37.847Z,4.90
2018-09-17T19:03:06.415Z,8.53
2018-09-17T19:05:37.765Z,10.33
2018-09-17T19:08:06.241Z,7.23
2018-09-17T19:10:34.698Z,5.23
2018-09-17T19:13:03.151Z,4.47
2018-09-17T19:15:36.848Z,6.30
2018-09-17T19:18:10.566Z,5.30
2018-09-17T19:20:39.213Z,5.70
2018-09-17T19:23:12.676Z,4.70
2018-09-17T19:25:41.146Z,5.43
2018-09-17T19:28:14.787Z,5.17
2018-09-17T19:30:43.241Z,4.80
2018-09-17T19:33:12.422Z,5.20
2018-09-17T19:35:40.871Z,5.30
2018-09-17T19:38:14.496Z,4.80
2018-09-17T19:40:42.918Z,5.00
2018-09-17T19:43:11.370Z,4.93
2018-09-17T19:45:45.091Z,4.63
2018-09-17T19:48:13.601Z,4.20
2018-09-17T19:50:47.418Z,4.50
2018-09-17T19:53:15.885Z,4.40
2018-09-17T19:55:44.329Z,4.60
2018-09-17T19:58:18.204Z,4.20
2018-09-17T20:00:46.721Z,4.63
2018-09-17T20:03:15.101Z,4.53
2018-09-17T20:05:50.031Z,5.03
2018-09-17T20:08:18.534Z,6.17
2018-09-17T20:10:46.964Z,6.23
2018-09-17T20:13:15.403Z,6.70
2018-09-17T20:15:44.504Z,6.93
2018-09-17T20:18:12.917Z,6.20
2018-09-17T20:20:41.383Z,6.40
2018-09-17T20:23:09.875Z,6.30
2018-09-17T20:25:38.274Z,6.00
2018-09-17T20:28:06.692Z,6.33
2018-09-17T20:30:35.802Z,5.90
2018-09-17T20:33:04.369Z,5.93
2018-09-17T20:35:32.807Z,5.30
2018-09-17T20:38:01.262Z,5.37
2018-09-17T20:40:29.663Z,5.20
2018-09-17T20:42:58.126Z,5.70
2018-09-17T20:45:28.918Z,6.40
2018-09-17T20:47:57.334Z,5.20
2018-09-17T20:50:25.755Z,5.40
2018-09-17T20:52:54.237Z,4.90
2018-09-17T20:55:23.002Z,4.57
2018-09-17T20:57:51.313Z,4.20
2018-09-17T21:00:19.707Z,4.00
2018-09-17T21:02:48.097Z,4.30
2018-09-17T21:05:16.541Z,4.17
2018-09-17T21:07:44.927Z,4.20
2018-09-17T21:10:13.368Z,4.80
2018-09-17T21:12:41.910Z,4.63
2018-09-17T21:15:10.264Z,3.70
2018-09-17T21:17:38.678Z,4.43
2018-09-17T21:20:07.121Z,5.17
2018-09-17T21:22:35.525Z,4.60
2018-09-17T21:25:03.958Z,4.30
2018-09-17T21:27:32.322Z,3.90
2018-09-17T21:30:00.719Z,3.90
2018-09-17T21:32:29.166Z,4.60
2018-09-17T21:34:57.634Z,3.97
2018-09-17T21:37:26.032Z,3.80
2018-09-17T21:39:54.454Z,3.60
2018-09-17T21:42:22.902Z,3.90
2018-09-17T21:44:51.308Z,4.10
2018-09-17T21:47:19.733Z,4.03
2018-09-17T21:49:48.136Z,4.20
2018-09-17T21:52:16.643Z,4.07
2018-09-17T21:54:44.949Z,3.67
2018-09-17T21:57:13.399Z,4.10
2018-09-17T21:59:41.795Z,4.10
2018-09-17T22:02:10.252Z,3.53
2018-09-17T22:04:38.623Z,3.70
2018-09-17T22:07:07.056Z,3.80
2018-09-17T22:09:35.498Z,3.63
2018-09-17T22:12:03.932Z,3.93
2018-09-17T22:14:32.368Z,4.20
2018-09-17T22:17:00.775Z,3.30
2018-09-17T22:19:29.265Z,3.83
2018-09-17T22:21:57.649Z,3.60
2018-09-17T22:24:26.087Z,3.90
2018-09-17T22:26:54.468Z,3.40
2018-09-17T22:29:22.900Z,3.80
2018-09-17T22:31:51.268Z,3.83
2018-09-17T22:34:19.679Z,4.23
2018-09-17T22:36:48.125Z,3.83
2018-09-17T22:39:16.544Z,4.77
2018-09-17T22:41:44.957Z,3.90
2018-09-17T22:44:13.345Z,4.20
2018-09-17T22:46:41.794Z,3.90
2018-09-17T22:49:10.242Z,4.20
2018-09-17T22:51:38.648Z,4.10
2018-09-17T22:54:07.092Z,4.23
2018-09-17T22:56:35.495Z,4.10
2018-09-17T22:59:03.952Z,4.37
2018-09-17T23:01:32.409Z,3.67
2018-09-17T23:04:00.844Z,4.07
2018-09-17T23:06:29.270Z,4.23
2018-09-17T23:08:57.657Z,4.20
2018-09-17T23:11:26.040Z,3.93
2018-09-17T23:13:54.439Z,3.73
2018-09-17T23:16:22.832Z,4.30
2018-09-17T23:18:51.259Z,4.50
2018-09-17T23:21:19.632Z,5.33
2018-09-17T23:23:48.065Z,4.80
2018-09-17T23:26:16.481Z,4.63
2018-09-17T23:28:44.913Z,4.83
2018-09-17T23:31:13.328Z,4.00
2018-09-17T23:33:41.769Z,4.20
2018-09-17T23:36:10.671Z,4.33
2018-09-17T23:38:39.068Z,4.20
2018-09-17T23:41:07.461Z,4.13
2018-09-17T23:43:35.912Z,4.47
2018-09-17T23:46:04.320Z,4.30
2018-09-17T23:48:32.759Z,4.50
2018-09-17T23:51:02.126Z,4.40
2018-09-17T23:53:30.525Z,4.60
2018-09-17T23:55:58.920Z,4.70
2018-09-17T23:58:27.311Z,4.03
